Monturaque, Chile
Current Conditions -  °F | °C
As of 5:00 AM on Saturday 25 Oct 2014 (Local Time) from SCCF Reporting Station
Clear Clear  
Wind Chill: 33°   Ceiling: Unl
Heat Index: 41°   Visibility: 6mi
Dew Point:   Wind: 15mph
Humidity: 24%   Direction: 90°E
Pressure: 30.27"   Gusts: NA
Location:  24.34°S, 68.43°W
Report Text: SCCF 250900Z 09013KT CAVOK 05/M14 Q1025
Loading
Personal Weather Stations






























Interactive Weather Map
Tropical Storm Tracking
New forecast layout! Learn more

10-Day Weather Forecast

Advertisements
Track Severe Weather on mobile